Palma De Mallorca, Spain

9:18 AM CEST on September 26, 2016 (GMT +0200)
Es Pil.larí | | Change Station
Active Advisory: >>

Elev 26 ft 39.53 °N, 2.75 °E | Updated 5 seconds ago

Partly Cloudy
Partly Cloudy
67.6 °F
Feels Like 67.6 °F
N
3.6
Wind Variable Wind from NNE
Gusts 3.6 mph

Today
High -- | Low -- °F
--% Chance of Precip.
Yesterday
High -- | Low -- °F
Precip. -- in
Pressure 30.15 in
Visibility 6.2 miles
Clouds Few 2600 ft
Dew Point 63 °F
Humidity 84%
Rainfall 0.00 in
Snow Depth Not available.
7:40 AM 7:39 PM
Waning Crescent, 21% visible
METAR LEPA 260700Z VRB02KT 9999 FEW026TCU 18/17 Q1021 NOSIG
Pressure 30.15 in
Visibility 6.2 miles
Clouds Few 2600 ft
Dew Point 63 °F
Humidity 84%
Rainfall 0.00 in
Snow Depth Not available.
7:40 AM 7:39 PM
Waning Crescent, 21% visible
METAR LEPA 260700Z VRB02KT 9999 FEW026TCU 18/17 Q1021 NOSIG

10-Day Weather Forecast

×

Almanac

Astronomy

Sep. 26, 2016 Rise Set
Actual Time
Civil Twilight
Nautical Twilight
Astronomical Twilight
Moon
Length of Visible Light
Length of Day
Tomorrow will be .
, % of the Moon is Illuminated

Today's Extremes

Country Highs Country Lows

Community

WunderPhotos

Upload Photos

1,941,853 photos uploaded!

WunderBlog® & News

Nearby

Air Quality

  Air Quality AQ Index Pollutant
Not available.

Snow Depth

Station Depth Elevation

Earthquake Activity

City Distance Mag. Time & Date
Minimum magnitude displayed is 2.5.

Coastal Water Temperatures

Place Temperature

Stations

Nearby Weather Stations

Station Location Temp. Windchill Dew Point Humidity Wind Precip. Elev Updated Type